メキシコシティ の空港の天気 - METARとTAF

メキシコ・シティ国際空港 ( MMMX / MEX ) - メキシコ メキシコシティ
飛行場実況気象(Metar)
観測時間05/19 21:52 CDT (05/20 02:52 UTC)
風向・風速東北東 9m/s
視程10km以上
天気現象
全天の4割程度の雲 雲底高度 910m
全天の8割程度の雲 雲底高度 6100m
気温21℃
湿度38%
気圧1004hPa
METARMMMX 200252Z 06017KT 7SM SCT030 BKN200 21/06 A3020 NOSIG RMK SLP040 52028 962 8/403 OCNL LTGICCG N HZY
過去の天気等 Google飛行場航空写真 Wunderground天気予報

過去48時間のMETAR

飛行場予報(TAF)
発表時間: 5/19 18:08 CDT (5/19 23:08 UTC)
予報対象時間: 19日19時 CDT ~ 21日1時 CDT
風向・風速北東 6m/s
視程10km以上
全天の4割程度の雲 雲底高度 910m
19日20時 CDT ~ 19日23時 CDT に一時的に
天気現象周辺で 弱い雨
全天の4割程度の積乱雲 雲底高度 910m
19日23時 CDT から
風向・風速北東 3m/s
視程10km以上
全天の4割程度の雲 雲底高度 3050m
20日7時 CDT ~ 20日8時 CDT に徐々に
視程10km以上
天気現象煙霧
なし
20日15時 CDT から
風向・風速北 6m/s
視程10km以上
全天の4割程度の雲 雲底高度 760m
20日17時 CDT ~ 20日18時 CDT に徐々に
全天の4割程度の積乱雲 雲底高度 760m
20日19時 CDT から 確率 40% で
視程10km以上
天気現象弱い雷雨
全天の8割程度の積乱雲 雲底高度 760m
全天の8割程度の雲 雲底高度 3050m
TAF MMMX 192308Z 2000/2106 04012KT P6SM SCT030 TX31/2021Z TN14/2012Z
TEMPO 2001/2004 VC -RA SCT030CB
FM200400 04005KT P6SM SCT100
BECMG 2012/2013 6SM HZ SKC
FM202000 35012KT P6SM SCT025
BECMG 2022/2023 SCT025CB
PROB40 2100/2104 6SM -TSRA BKN025CB BKN100